logo tempoitalia

Diretta Meteo Dijon, Francialunedì 31 agosto ore 07:00

Mappa
Sereno 16 °C Poco Nuvoloso 24 Ore: T.min 16 T.max 28
Ponente Sud Km/h 9.3 Punto di rugiada: 14 °C Umidità: 87% Visibilità: 10 Km
Il sole sorge alle: 06:57 Il sole tramonta alle: 20:22
31 Agosto 2026 07:00 tempo osservato: Poco Nuvoloso Poco Nuvoloso 16 87 1018 vento: Nord S 9.3
31 Agosto 2026 06:30 tempo osservato: Sereno Sereno 16 87 1018 vento: Nord S 11.1
31 Agosto 2026 06:00 tempo osservato: Sereno Sereno 16 87 1018 vento: Nord S 9.3
31 Agosto 2026 05:30 tempo osservato: Sereno Sereno 17 82 1018 vento: Nord S 9.3
31 Agosto 2026 05:00 tempo osservato: Sereno Sereno 16 87 1018 vento: Nord S 9.3
31 Agosto 2026 04:30 tempo osservato: Sereno Sereno 16 87 1018 vento: Nord SE 7.4
31 Agosto 2026 04:00 tempo osservato: Sereno Sereno 17 82 1018 vento: Nord SO 9.3
31 Agosto 2026 03:30 tempo osservato: Sereno Sereno 18 77 1018 vento: Nord O/SO 20.3
31 Agosto 2026 03:00 tempo osservato: Sereno Sereno 18 77 1018 vento: Nord O/SO 22.2
31 Agosto 2026 02:30 tempo osservato: Sereno Sereno 18 82 1017 vento: Nord O 29.6
31 Agosto 2026 02:00 tempo osservato: Sereno Sereno 18 82 1017 vento: Nord O/SO 20.3
31 Agosto 2026 01:30 tempo osservato: Sereno Sereno 19 77 1017 vento: Nord O/SO 18.5
31 Agosto 2026 01:00 tempo osservato: Sereno Sereno 19 82 1017 vento: Nord SO 11.1
31 Agosto 2026 00:30 tempo osservato: Sereno Sereno 19 88 1017 vento: Nord SO 7.4
31 Agosto 2026 00:00 tempo osservato: Sereno Sereno 19 88 1016 vento: Nord N 5.5
30 Agosto 2026 23:30 tempo osservato: Pioggia Pioggia 19 88 1016 vento: Nord O/NO 14.8
30 Agosto 2026 23:00 tempo osservato: Molto Nuvoloso Molto Nuvoloso 20 88 1016 vento: Nord N 5.5
30 Agosto 2026 22:30 tempo osservato: Sereno Sereno 20 82 1015 vento: Nord N/NO 11.1
30 Agosto 2026 22:00 tempo osservato: Sereno Sereno 21 77 1015 vento: Nord NO 14.8
30 Agosto 2026 21:30 tempo osservato: Pioggia Pioggia 21 77 1015 vento: Nord S/SO 13
30 Agosto 2026 21:00 tempo osservato: Temporale nelle vicinanze Temporale nelle vicinanze 24 60 1014 vento: Nord SO 11.1
30 Agosto 2026 20:30 tempo osservato: Sereno Sereno 25 50 1013 vento: Nord O/SO 7.4
30 Agosto 2026 20:00 tempo osservato: Sereno Sereno 26 47 1013 vento: Nord O/SO 13
30 Agosto 2026 19:30 tempo osservato: Sereno Sereno 27 42 1014 vento: Nord SO 14.8
30 Agosto 2026 19:00 tempo osservato: Sereno Sereno 27 44 1014 vento: Nord S/SO 13
30 Agosto 2026 18:30 tempo osservato: Coperto Coperto 28 39 1014 vento: Nord S/SO 14.8
30 Agosto 2026 18:00 tempo osservato: Sereno Sereno 28 42 1014 vento: Nord S 16.7
30 Agosto 2026 17:30 tempo osservato: Sereno Sereno 27 44 1014 vento: Nord S 13
30 Agosto 2026 17:00 tempo osservato: Sereno Sereno 28 42 1015 vento: Nord S/SO 14.8
30 Agosto 2026 16:30 tempo osservato: Sereno Sereno 27 44 1015 vento: Nord S/SO 14.8
30 Agosto 2026 16:00 tempo osservato: Sereno Sereno 27 42 1015 vento: Nord S 16.7
30 Agosto 2026 15:30 tempo osservato: Sereno Sereno 27 42 1015 vento: Nord SO 18.5
30 Agosto 2026 15:00 tempo osservato: Sereno Sereno 27 42 1016 vento: Nord S 14.8
30 Agosto 2026 14:30 tempo osservato: Sereno Sereno 27 39 1016 vento: Nord S/SO 20.3
30 Agosto 2026 14:00 tempo osservato: Sereno Sereno 27 42 1016 vento: Nord SO 18.5
30 Agosto 2026 13:30 tempo osservato: Sereno Sereno 26 44 1016 vento: Nord SO 20.3
30 Agosto 2026 13:00 tempo osservato: Sereno Sereno 27 44 1016 vento: Nord S/SO 18.5
30 Agosto 2026 12:30 tempo osservato: Poco Nuvoloso Poco Nuvoloso 26 50 1016 vento: Nord S 16.7
30 Agosto 2026 12:00 tempo osservato: Molto Nuvoloso Molto Nuvoloso 25 50 1017 vento: Nord SO 20.3
30 Agosto 2026 11:30 tempo osservato: Nuvoloso Nuvoloso 25 53 1017 vento: Nord SO 14.8
30 Agosto 2026 11:00 tempo osservato: Molto Nuvoloso Molto Nuvoloso 24 57 1017 vento: Nord O/SO 20.3
30 Agosto 2026 10:30 tempo osservato: Sereno Sereno 24 60 1017 vento: Nord O/SO 16.7
30 Agosto 2026 10:00 tempo osservato: Sereno Sereno 23 64 1017 vento: Nord SO 14.8
30 Agosto 2026 09:30 tempo osservato: Sereno Sereno 22 73 1017 vento: Nord O/SO 16.7
30 Agosto 2026 09:00 tempo osservato: Molto Nuvoloso Molto Nuvoloso 21 77 1017 vento: Nord O 18.5
30 Agosto 2026 08:30 tempo osservato: Molto Nuvoloso Molto Nuvoloso 20 77 1017 vento: Nord O 13
30 Agosto 2026 08:00 tempo osservato: Molto Nuvoloso Molto Nuvoloso 19 82 1017 vento: Nord O/SO 7.4